Time;durP1;ratioP1;P1;durP2;ratioP2;P2;SDS_P1;SDS_P2;PMS_P1;PMS_P2;Temp;Humidity;BMP_temperature;BMP_pressure;BME280_temperature;BME280_humidity;BME280_pressure;Samples;Min_cycle;Max_cycle;Signal;HPM_P1;HPM_P2
2021/06/20 00:00:40;;;;;;;10.93;5.88;;;23.80;72.20;;;;;;6219758;23;20056;-79
2021/06/20 00:03:09;;;;;;;11.25;5.00;;;23.90;72.00;;;;;;6221581;23;20028;-80
2021/06/20 00:05:38;;;;;;;11.48;6.07;;;23.90;72.00;;;;;;6224352;23;20020;-79
2021/06/20 00:08:14;;;;;;;10.60;5.70;;;23.70;72.50;;;;;;6225718;23;20028;-80
2021/06/20 00:10:51;;;;;;;9.05;5.10;;;23.70;73.00;;;;;;6226269;23;20044;-80
2021/06/20 00:13:19;;;;;;;9.70;5.45;;;23.80;72.90;;;;;;6223928;23;20232;-80
2021/06/20 00:15:49;;;;;;;12.32;5.65;;;23.70;73.10;;;;;;6224309;23;20320;-81
2021/06/20 00:18:18;;;;;;;9.52;5.38;;;23.80;73.10;;;;;;6226679;23;20017;-80
2021/06/20 00:20:49;;;;;;;7.03;5.00;;;23.90;72.70;;;;;;6232498;23;20024;-79
2021/06/20 00:23:16;;;;;;;11.15;6.05;;;24.00;72.20;;;;;;6231423;23;20051;-80
2021/06/20 00:25:44;;;;;;;9.10;5.28;;;24.00;71.90;;;;;;6224511;23;20092;-80
2021/06/20 00:28:12;;;;;;;9.13;4.50;;;24.10;71.20;;;;;;6223872;23;20228;-79
2021/06/20 00:30:39;;;;;;;6.60;4.10;;;24.00;71.00;;;;;;6224720;23;20020;-79
2021/06/20 00:33:07;;;;;;;13.65;5.28;;;24.00;70.20;;;;;;6222413;23;20029;-79
2021/06/20 00:35:36;;;;;;;9.60;4.95;;;24.00;70.20;;;;;;6225717;23;20341;-79
2021/06/20 00:38:04;;;;;;;7.70;3.97;;;24.10;69.50;;;;;;6225772;23;20047;-79
2021/06/20 00:40:31;;;;;;;8.35;4.55;;;24.20;69.00;;;;;;6226464;23;20063;-80
2021/06/20 00:42:58;;;;;;;8.10;4.15;;;24.20;68.00;;;;;;6221808;23;20021;-79
2021/06/20 00:45:26;;;;;;;10.05;4.43;;;24.30;66.90;;;;;;6219121;23;20028;-79
2021/06/20 00:47:57;;;;;;;10.05;4.30;;;24.20;67.40;;;;;;6218387;23;20029;-79
2021/06/20 00:50:24;;;;;;;12.15;4.60;;;24.10;67.10;;;;;;6161118;22;21276;-79
2021/06/20 00:52:56;;;;;;;4.87;3.10;;;24.10;67.60;;;;;;364427;22;10022046;-79
2021/06/20 00:55:24;;;;;;;6.75;4.18;;;24.00;68.20;;;;;;6222358;23;20017;-80
2021/06/20 00:57:52;;;;;;;7.97;4.65;;;24.10;68.50;;;;;;6241765;23;20023;-79
2021/06/20 01:00:20;;;;;;;10.82;4.38;;;24.30;68.50;;;;;;6215486;23;20039;-79
2021/06/20 01:02:51;;;;;;;7.25;4.18;;;24.40;66.00;;;;;;6220945;23;20031;-80
2021/06/20 01:05:18;;;;;;;8.13;4.60;;;24.40;66.90;;;;;;6218825;23;20239;-79
2021/06/20 01:07:46;;;;;;;9.70;4.50;;;24.50;66.80;;;;;;6221358;23;20044;-79
2021/06/20 01:10:15;;;;;;;11.45;4.63;;;24.50;66.10;;;;;;6219099;23;20342;-81
2021/06/20 01:12:42;;;;;;;10.25;4.55;;;24.50;65.40;;;;;;6218376;23;20043;-79
2021/06/20 01:15:11;;;;;;;11.50;5.10;;;24.40;66.70;;;;;;6221134;23;20039;-79
2021/06/20 01:17:39;;;;;;;13.68;5.00;;;24.60;66.00;;;;;;6221341;23;20035;-79
2021/06/20 01:20:09;;;;;;;9.77;4.72;;;24.70;64.70;;;;;;6219293;23;20116;-79
2021/06/20 01:22:39;;;;;;;7.75;4.40;;;24.70;64.90;;;;;;6243712;23;20075;-79
2021/06/20 01:25:09;;;;;;;8.15;4.40;;;24.70;66.00;;;;;;6218598;23;20033;-79
2021/06/20 01:27:39;;;;;;;8.13;4.47;;;24.80;64.30;;;;;;6217929;23;20312;-80
2021/06/20 01:30:09;;;;;;;7.07;3.95;;;24.80;64.40;;;;;;6219909;23;20083;-79
2021/06/20 01:32:36;;;;;;;10.52;4.75;;;24.80;64.90;;;;;;6220315;23;20043;-79
2021/06/20 01:35:04;;;;;;;8.32;4.45;;;25.00;63.90;;;;;;6246065;23;20028;-79
2021/06/20 01:37:32;;;;;;;10.98;4.63;;;25.00;63.40;;;;;;6220917;23;20012;-79
2021/06/20 01:40:00;;;;;;;6.80;4.30;;;25.10;62.60;;;;;;6220851;23;20028;-80
2021/06/20 01:42:34;;;;;;;7.53;4.07;;;25.20;63.70;;;;;;6223449;23;20028;-79
2021/06/20 01:45:01;;;;;;;7.25;4.07;;;25.30;63.30;;;;;;6221340;23;20028;-80
2021/06/20 01:47:30;;;;;;;7.53;4.32;;;25.30;63.10;;;;;;6220475;23;20324;-80
2021/06/20 01:50:00;;;;;;;10.93;4.45;;;25.40;62.30;;;;;;6222380;23;20036;-79
2021/06/20 01:52:32;;;;;;;9.65;4.50;;;25.30;62.70;;;;;;6222895;23;20220;-79
2021/06/20 01:55:00;;;;;;;11.52;4.90;;;25.10;63.50;;;;;;6218916;23;20036;-79
2021/06/20 01:57:30;;;;;;;6.57;4.63;;;24.90;65.00;;;;;;6246509;23;20016;-80
2021/06/20 01:59:59;;;;;;;9.43;4.30;;;24.60;66.30;;;;;;6222637;23;20070;-79
2021/06/20 02:02:27;;;;;;;10.35;4.50;;;24.30;67.00;;;;;;6217901;23;20308;-80
2021/06/20 02:04:56;;;;;;;9.07;4.93;;;24.20;67.40;;;;;;6221261;23;20028;-79
2021/06/20 02:07:25;;;;;;;8.85;4.65;;;24.30;67.50;;;;;;6222640;23;20013;-79
2021/06/20 02:09:53;;;;;;;10.48;5.03;;;24.20;67.70;;;;;;6220279;23;20035;-78
2021/06/20 02:12:24;;;;;;;10.20;5.68;;;24.20;68.20;;;;;;6223630;23;20024;-78
2021/06/20 02:14:52;;;;;;;9.50;4.97;;;24.10;68.30;;;;;;6219235;23;20029;-77
2021/06/20 02:17:30;;;;;;;10.50;5.18;;;24.10;68.80;;;;;;6224469;23;20051;-79
2021/06/20 02:19:59;;;;;;;6.90;4.65;;;24.10;69.10;;;;;;6222913;23;20047;-79
2021/06/20 02:22:28;;;;;;;9.48;4.60;;;23.90;69.70;;;;;;6224117;23;20024;-80
2021/06/20 02:24:55;;;;;;;14.77;5.80;;;24.00;69.50;;;;;;6220166;23;20021;-81
2021/06/20 02:27:24;;;;;;;9.23;5.15;;;24.00;69.30;;;;;;6223513;23;20016;-79
2021/06/20 02:29:57;;;;;;;11.18;4.72;;;24.00;69.20;;;;;;6219164;23;20093;-80
2021/06/20 02:32:25;;;;;;;6.93;4.32;;;24.00;69.60;;;;;;6220864;23;20017;-80
2021/06/20 02:34:54;;;;;;;10.40;5.50;;;24.10;69.40;;;;;;6217913;23;20024;-81
2021/06/20 02:37:22;;;;;;;10.32;5.50;;;24.10;69.20;;;;;;6224714;23;20266;-80
2021/06/20 02:39:50;;;;;;;9.00;5.00;;;24.00;69.60;;;;;;6226688;23;20059;-79
2021/06/20 02:42:18;;;;;;;8.80;4.78;;;23.90;69.90;;;;;;6221649;23;20032;-80
2021/06/20 02:44:48;;;;;;;8.57;4.95;;;23.90;70.00;;;;;;6218258;23;20028;-79
2021/06/20 02:47:15;;;;;;;11.43;4.80;;;24.00;69.70;;;;;;6218393;23;20024;-79
2021/06/20 02:49:43;;;;;;;7.97;4.25;;;24.10;69.50;;;;;;6217647;23;20020;-79
2021/06/20 02:52:13;;;;;;;13.32;5.45;;;24.20;68.80;;;;;;6220783;23;20016;-80
2021/06/20 02:54:49;;;;;;;12.23;5.30;;;24.30;66.60;;;;;;6221619;23;20050;-79
2021/06/20 02:57:18;;;;;;;10.00;4.80;;;24.40;66.70;;;;;;6219361;23;20215;-80
2021/06/20 02:59:46;;;;;;;11.40;5.55;;;24.40;66.40;;;;;;6244023;23;20035;-79
2021/06/20 03:02:15;;;;;;;11.93;4.70;;;24.50;65.60;;;;;;6214775;23;20558;-79
2021/06/20 03:04:42;;;;;;;12.27;5.15;;;24.90;64.30;;;;;;6215926;23;20466;-79
2021/06/20 03:07:10;;;;;;;16.13;4.80;;;25.10;64.00;;;;;;6217125;23;20274;-79
2021/06/20 03:09:37;;;;;;;12.30;4.78;;;25.10;63.80;;;;;;6220609;23;20024;-79
2021/06/20 03:12:13;;;;;;;13.95;5.65;;;25.30;63.20;;;;;;6217065;23;20039;-79
2021/06/20 03:14:42;;;;;;;16.70;5.45;;;25.50;62.80;;;;;;6219929;23;20024;-79
2021/06/20 03:17:12;;;;;;;11.98;5.00;;;25.60;62.20;;;;;;6215423;23;20025;-78
2021/06/20 03:19:41;;;;;;;13.15;4.65;;;25.70;62.10;;;;;;6243042;23;20256;-79
2021/06/20 03:22:09;;;;;;;17.53;5.57;;;25.80;61.90;;;;;;6215856;23;20140;-80
2021/06/20 03:24:40;;;;;;;14.45;5.35;;;25.80;61.90;;;;;;6221821;23;20029;-79
2021/06/20 03:27:08;;;;;;;15.90;5.13;;;25.70;62.20;;;;;;6221336;23;20027;-79
2021/06/20 03:29:35;;;;;;;13.15;5.07;;;25.70;62.30;;;;;;6247243;23;20021;-80
2021/06/20 03:32:04;;;;;;;10.60;4.50;;;25.70;62.40;;;;;;6220204;23;20074;-80
2021/06/20 03:34:33;;;;;;;11.57;4.97;;;25.70;62.60;;;;;;6222375;23;20016;-80
2021/06/20 03:37:00;;;;;;;14.07;5.22;;;25.60;62.70;;;;;;6222482;23;20021;-80
2021/06/20 03:39:29;;;;;;;16.40;6.03;;;25.60;63.10;;;;;;6221764;23;20044;-80
2021/06/20 03:41:57;;;;;;;11.10;4.53;;;25.50;63.40;;;;;;6222825;23;20024;-79
2021/06/20 03:44:24;;;;;;;16.45;5.32;;;25.40;63.60;;;;;;6223396;23;20031;-80
2021/06/20 03:46:51;;;;;;;15.30;5.47;;;25.40;63.70;;;;;;6222360;23;20043;-79
2021/06/20 03:49:19;;;;;;;15.15;5.82;;;25.40;63.90;;;;;;6218733;23;20018;-79
2021/06/20 03:51:48;;;;;;;12.82;4.90;;;25.40;63.90;;;;;;6219463;23;20025;-79
2021/06/20 03:54:16;;;;;;;13.80;5.25;;;25.40;63.80;;;;;;6220853;23;20220;-79
2021/06/20 03:56:43;;;;;;;14.85;6.22;;;25.30;63.90;;;;;;6223061;23;20021;-80
2021/06/20 03:59:11;;;;;;;12.23;5.38;;;25.30;63.90;;;;;;6221027;23;20245;-79
2021/06/20 04:01:39;;;;;;;15.48;4.88;;;25.30;63.90;;;;;;6217419;23;20080;-79
2021/06/20 04:04:06;;;;;;;13.93;4.40;;;25.30;64.00;;;;;;6222266;23;20035;-80
2021/06/20 04:06:34;;;;;;;17.10;5.85;;;25.20;64.20;;;;;;6218240;23;20028;-79
2021/06/20 04:09:03;;;;;;;11.02;5.25;;;25.20;64.60;;;;;;6219223;23;20024;-79
2021/06/20 04:11:30;;;;;;;11.50;5.28;;;25.10;65.20;;;;;;6219897;23;20249;-79
2021/06/20 04:13:58;;;;;;;13.77;5.97;;;25.00;65.60;;;;;;6223988;23;20028;-79
2021/06/20 04:16:25;;;;;;;13.90;5.88;;;24.90;65.40;;;;;;6220775;23;20119;-79
2021/06/20 04:18:52;;;;;;;14.50;5.20;;;25.00;65.50;;;;;;6220409;23;20017;-79
2021/06/20 04:21:20;;;;;;;16.05;5.85;;;25.00;65.70;;;;;;6219524;23;20028;-79
2021/06/20 04:23:48;;;;;;;11.90;4.38;;;24.90;65.60;;;;;;6220163;23;20080;-80
2021/06/20 04:26:17;;;;;;;13.93;4.80;;;24.90;65.40;;;;;;6216804;23;20032;-80
2021/06/20 04:28:44;;;;;;;15.18;4.13;;;25.00;64.80;;;;;;6218563;23;20039;-78
2021/06/20 04:31:12;;;;;;;11.50;4.55;;;25.10;64.40;;;;;;6214906;23;20028;-79
2021/06/20 04:33:39;;;;;;;14.63;4.25;;;25.10;64.40;;;;;;6216006;23;20029;-79
2021/06/20 04:36:06;;;;;;;15.45;4.45;;;25.00;64.40;;;;;;6220112;23;20025;-79
2021/06/20 04:38:34;;;;;;;11.18;4.28;;;25.00;64.60;;;;;;6244538;23;20027;-79
2021/06/20 04:41:04;;;;;;;11.32;5.07;;;24.90;64.80;;;;;;6220932;23;20025;-79
2021/06/20 04:43:45;;;;;;;14.82;5.20;;;24.80;64.70;;;;;;6218600;23;20051;-78
2021/06/20 04:46:23;;;;;;;10.63;4.20;;;24.80;64.90;;;;;;6219566;23;20059;-80
2021/06/20 04:48:51;;;;;;;9.18;4.13;;;24.70;64.50;;;;;;6221462;23;20201;-80
2021/06/20 04:51:19;;;;;;;11.70;4.18;;;24.70;64.20;;;;;;6218318;23;20047;-80
2021/06/20 04:53:47;;;;;;;9.25;3.80;;;24.70;64.00;;;;;;6243312;23;20354;-80
2021/06/20 04:56:14;;;;;;;8.50;3.40;;;24.70;64.20;;;;;;6216773;23;20063;-81
2021/06/20 04:58:43;;;;;;;12.40;3.63;;;24.70;63.40;;;;;;6218203;23;20025;-80
2021/06/20 05:01:10;;;;;;;13.27;3.17;;;24.70;63.30;;;;;;6214584;23;20031;-80
2021/06/20 05:03:38;;;;;;;8.77;3.30;;;24.70;62.60;;;;;;6218514;23;20075;-80
2021/06/20 05:06:05;;;;;;;6.72;2.97;;;24.60;62.90;;;;;;6220375;23;20347;-79
2021/06/20 05:08:33;;;;;;;9.02;2.83;;;24.60;62.90;;;;;;6218822;23;20075;-80
2021/06/20 05:11:00;;;;;;;9.02;2.95;;;24.60;62.70;;;;;;6220050;23;20024;-80
2021/06/20 05:13:28;;;;;;;8.80;2.67;;;24.60;61.50;;;;;;6219459;23;20028;-80
2021/06/20 05:15:57;;;;;;;9.50;2.22;;;24.70;61.20;;;;;;6221752;23;20075;-79
2021/06/20 05:18:24;;;;;;;8.67;2.50;;;24.80;61.10;;;;;;6220668;23;20267;-81
2021/06/20 05:20:52;;;;;;;8.00;2.08;;;24.90;61.10;;;;;;6218888;23;20035;-80
2021/06/20 05:23:20;;;;;;;6.35;2.63;;;24.90;60.90;;;;;;6219855;23;20205;-79
2021/06/20 05:25:48;;;;;;;5.57;2.17;;;25.00;60.20;;;;;;6218693;23;20080;-79
2021/06/20 05:28:15;;;;;;;6.95;2.80;;;25.10;60.00;;;;;;6220218;23;20016;-79
2021/06/20 05:30:45;;;;;;;6.38;1.92;;;25.10;59.70;;;;;;6219388;23;20028;-79
2021/06/20 05:33:14;;;;;;;7.82;2.30;;;25.20;59.20;;;;;;6243592;23;20055;-79
2021/06/20 05:35:42;;;;;;;7.55;1.90;;;25.20;58.90;;;;;;6218353;23;20320;-78
2021/06/20 05:38:09;;;;;;;5.78;2.10;;;25.20;59.40;;;;;;6220033;23;20369;-79
2021/06/20 05:40:37;;;;;;;6.25;1.80;;;25.20;58.40;;;;;;6221790;23;20031;-79
2021/06/20 05:43:06;;;;;;;14.07;3.35;;;25.30;58.30;;;;;;6221642;23;20092;-79
2021/06/20 05:45:34;;;;;;;11.30;2.83;;;25.20;58.30;;;;;;6221471;23;20025;-80
2021/06/20 05:48:01;;;;;;;11.32;1.92;;;25.30;58.70;;;;;;6225290;23;20016;-79
2021/06/20 05:50:31;;;;;;;7.35;1.98;;;25.20;58.30;;;;;;6223931;23;20024;-80
2021/06/20 05:52:58;;;;;;;4.13;1.60;;;25.20;58.20;;;;;;6220290;23;20024;-78
2021/06/20 05:55:26;;;;;;;6.55;2.03;;;25.20;58.40;;;;;;6216519;23;20017;-79
2021/06/20 05:57:53;;;;;;;3.20;1.98;;;25.20;58.30;;;;;;6219022;23;20340;-79
2021/06/20 06:00:21;;;;;;;7.75;2.00;;;25.20;58.50;;;;;;6214979;23;20078;-78
2021/06/20 06:02:48;;;;;;;9.52;2.90;;;25.20;58.60;;;;;;6219965;23;20288;-78
2021/06/20 06:05:15;;;;;;;5.03;1.92;;;25.40;58.50;;;;;;6215949;23;20025;-78
2021/06/20 06:07:46;;;;;;;6.88;2.35;;;25.30;58.60;;;;;;6219617;23;20024;-78
2021/06/20 06:10:14;;;;;;;10.48;2.03;;;25.50;58.50;;;;;;6222605;23;20016;-79
2021/06/20 06:12:41;;;;;;;5.97;2.22;;;25.60;58.50;;;;;;6217596;23;20064;-78
2021/06/20 06:15:10;;;;;;;10.55;2.00;;;25.70;58.00;;;;;;6217761;23;20036;-79
2021/06/20 06:17:37;;;;;;;5.82;2.40;;;25.90;57.80;;;;;;6216981;23;20024;-78
2021/06/20 06:20:06;;;;;;;4.30;1.67;;;25.90;57.20;;;;;;6219389;23;20067;-79
2021/06/20 06:22:33;;;;;;;7.43;2.17;;;26.10;57.00;;;;;;6220661;23;20351;-79
2021/06/20 06:25:02;;;;;;;6.68;1.90;;;26.30;57.30;;;;;;6217856;23;20036;-79
2021/06/20 06:27:32;;;;;;;5.50;1.85;;;26.30;56.60;;;;;;6218032;23;20358;-79
2021/06/20 06:29:59;;;;;;;6.95;1.88;;;26.20;57.10;;;;;;6219208;23;20067;-79
2021/06/20 06:32:27;;;;;;;5.82;1.80;;;26.10;57.30;;;;;;6220470;23;20024;-78
2021/06/20 06:34:54;;;;;;;7.15;1.88;;;25.70;57.70;;;;;;6242465;23;20429;-79
2021/06/20 06:37:22;;;;;;;4.80;2.53;;;25.30;58.60;;;;;;6220699;23;20367;-78
2021/06/20 06:39:49;;;;;;;4.95;2.03;;;25.40;58.90;;;;;;6219266;23;20240;-79
2021/06/20 06:42:18;;;;;;;6.25;1.73;;;25.40;58.70;;;;;;6216621;23;20030;-79
2021/06/20 06:44:45;;;;;;;5.30;1.70;;;25.40;59.00;;;;;;6218219;23;20032;-78
2021/06/20 06:47:13;;;;;;;8.85;1.95;;;25.20;59.20;;;;;;6218455;23;20021;-78
2021/06/20 06:49:41;;;;;;;6.75;2.65;;;25.10;59.20;;;;;;6221480;23;20020;-78
2021/06/20 06:52:08;;;;;;;4.97;1.65;;;25.30;59.00;;;;;;6246028;23;20051;-79
2021/06/20 06:54:35;;;;;;;6.05;1.63;;;25.10;59.70;;;;;;6220087;23;20031;-79
2021/06/20 06:57:03;;;;;;;5.22;2.00;;;25.10;59.60;;;;;;6214777;23;20199;-78
2021/06/20 06:59:32;;;;;;;3.90;1.80;;;25.10;59.60;;;;;;6219456;23;20012;-79
2021/06/20 07:01:59;;;;;;;;;;;25.10;59.60;;;;;;6214193;23;20398;-79
2021/06/20 07:04:26;;;;;;;7.53;2.05;;;25.30;59.20;;;;;;6220880;23;19924;-78
2021/06/20 07:06:54;;;;;;;5.80;1.90;;;25.40;59.10;;;;;;6220932;23;20208;-78
2021/06/20 07:09:21;;;;;;;7.45;1.83;;;25.50;58.50;;;;;;6221381;23;20288;-79
2021/06/20 07:11:48;;;;;;;5.35;2.55;;;25.60;58.40;;;;;;6219408;23;20028;-79
2021/06/20 07:14:15;;;;;;;5.10;1.85;;;25.80;58.00;;;;;;6223461;23;20025;-79
2021/06/20 07:16:44;;;;;;;6.45;1.80;;;25.80;58.00;;;;;;6223293;23;20302;-78
2021/06/20 07:19:11;;;;;;;7.00;2.40;;;25.90;57.50;;;;;;6220786;23;20021;-79
2021/06/20 07:21:38;;;;;;;5.10;1.70;;;25.90;58.00;;;;;;6223059;23;20017;-78
2021/06/20 07:24:06;;;;;;;9.40;2.35;;;26.00;58.30;;;;;;6222380;23;20024;-78
2021/06/20 07:26:34;;;;;;;6.50;2.15;;;25.70;58.20;;;;;;6221301;23;20249;-79
2021/06/20 07:29:02;;;;;;;6.18;2.08;;;25.80;58.50;;;;;;6221132;23;20021;-80
2021/06/20 07:31:30;;;;;;;9.00;2.40;;;25.90;58.20;;;;;;6219723;23;20040;-79
2021/06/20 07:33:58;;;;;;;4.40;2.92;;;26.10;57.40;;;;;;6221515;23;20047;-78
2021/06/20 07:36:26;;;;;;;5.80;2.03;;;25.80;57.90;;;;;;6219834;23;20024;-78
2021/06/20 07:38:53;;;;;;;4.88;1.95;;;26.10;57.50;;;;;;6221814;23;20510;-79
2021/06/20 07:41:21;;;;;;;4.72;2.13;;;26.30;57.30;;;;;;6219777;23;20102;-79
2021/06/20 07:43:50;;;;;;;4.28;1.95;;;26.30;56.90;;;;;;6247656;23;20028;-80
2021/06/20 07:46:18;;;;;;;11.77;2.22;;;26.50;56.80;;;;;;6223822;23;20028;-80
2021/06/20 07:48:46;;;;;;;5.43;2.30;;;26.50;55.90;;;;;;6222007;23;20201;-77
2021/06/20 07:51:14;;;;;;;5.38;1.88;;;26.30;56.70;;;;;;6218713;23;20312;-79
2021/06/20 07:53:42;;;;;;;5.77;2.30;;;26.30;57.50;;;;;;6223365;23;20016;-79
2021/06/20 07:56:09;;;;;;;4.97;1.98;;;26.10;57.50;;;;;;6218607;23;20021;-78
2021/06/20 07:58:37;;;;;;;5.10;1.92;;;26.20;56.80;;;;;;6218056;23;20032;-78
2021/06/20 08:01:05;;;;;;;4.60;1.88;;;26.40;57.00;;;;;;6211817;23;20307;-78
2021/06/20 08:03:34;;;;;;;5.90;2.30;;;26.60;56.20;;;;;;6222843;23;20035;-78
2021/06/20 08:06:01;;;;;;;6.32;2.17;;;26.80;56.30;;;;;;6222703;23;20025;-79
2021/06/20 08:08:29;;;;;;;5.90;2.30;;;27.00;55.80;;;;;;6223127;23;20021;-79
2021/06/20 08:10:58;;;;;;;5.13;2.23;;;26.70;56.00;;;;;;6224384;23;20185;-80
2021/06/20 08:13:25;;;;;;;5.55;2.75;;;26.80;55.70;;;;;;6222988;23;20241;-79
2021/06/20 08:15:52;;;;;;;6.45;2.63;;;26.30;56.20;;;;;;6226110;23;20055;-79
2021/06/20 08:18:20;;;;;;;7.75;2.47;;;26.50;56.60;;;;;;6226170;23;20059;-78
2021/06/20 08:20:48;;;;;;;6.60;2.78;;;26.90;55.50;;;;;;6224262;23;20035;-79
2021/06/20 08:23:15;;;;;;;8.57;3.08;;;26.90;55.40;;;;;;6226163;23;20035;-79
2021/06/20 08:25:44;;;;;;;6.88;3.72;;;27.10;55.30;;;;;;6246221;23;20024;-80
2021/06/20 08:28:11;;;;;;;7.00;2.78;;;27.20;54.70;;;;;;6224037;23;20064;-80
2021/06/20 08:30:38;;;;;;;7.03;2.78;;;27.10;54.70;;;;;;6226866;23;20074;-77
2021/06/20 08:33:06;;;;;;;4.57;2.42;;;27.00;54.40;;;;;;6223509;23;20216;-81
2021/06/20 08:35:33;;;;;;;6.38;2.55;;;27.00;54.60;;;;;;6226344;23;20327;-80
2021/06/20 08:38:07;;;;;;;8.40;2.28;;;27.10;54.10;;;;;;6223964;23;20016;-78
2021/06/20 08:40:35;;;;;;;5.85;2.10;;;26.90;54.60;;;;;;6223544;23;20028;-80
2021/06/20 08:43:04;;;;;;;6.03;2.17;;;26.90;54.40;;;;;;6223946;23;20350;-79
2021/06/20 08:45:31;;;;;;;5.27;2.27;;;27.10;54.30;;;;;;6227452;23;20040;-79
2021/06/20 08:48:01;;;;;;;5.85;2.65;;;26.90;54.40;;;;;;6222345;23;20028;-79
2021/06/20 08:50:30;;;;;;;5.93;2.45;;;26.90;54.90;;;;;;6250708;23;20116;-80
2021/06/20 08:52:57;;;;;;;5.35;2.50;;;27.00;54.20;;;;;;6220042;23;20029;-79
2021/06/20 08:55:25;;;;;;;8.00;2.20;;;27.40;54.10;;;;;;6224971;23;20087;-80
2021/06/20 08:57:59;;;;;;;3.75;1.98;;;27.60;53.20;;;;;;6223472;23;20020;-80
2021/06/20 09:00:28;;;;;;;7.70;3.03;;;27.00;54.50;;;;;;6221614;23;20028;-79
2021/06/20 09:02:59;;;;;;;4.95;1.95;;;27.40;52.70;;;;;;6231563;23;20021;-78
2021/06/20 09:05:27;;;;;;;7.35;1.85;;;27.20;52.50;;;;;;6230283;23;20017;-78
2021/06/20 09:07:54;;;;;;;3.75;2.28;;;27.20;52.50;;;;;;6226246;23;20303;-77
2021/06/20 09:10:25;;;;;;;6.03;2.15;;;27.00;52.90;;;;;;6223443;23;20041;-78
2021/06/20 09:12:54;;;;;;;5.25;2.33;;;27.20;52.90;;;;;;6225731;23;20020;-78
2021/06/20 09:15:23;;;;;;;5.32;2.38;;;27.50;52.60;;;;;;6224736;23;20021;-78
2021/06/20 09:17:54;;;;;;;4.95;1.83;;;27.60;52.40;;;;;;6223581;23;20261;-79
2021/06/20 09:20:32;;;;;;;3.88;1.95;;;27.60;52.50;;;;;;6249167;23;20024;-79
2021/06/20 09:23:02;;;;;;;7.05;2.42;;;27.90;52.40;;;;;;6224952;23;20086;-79
2021/06/20 09:25:31;;;;;;;7.57;2.28;;;28.00;51.80;;;;;;6223649;23;20028;-79
2021/06/20 09:28:00;;;;;;;8.23;2.07;;;28.00;51.90;;;;;;6221466;23;20029;-79
2021/06/20 09:30:34;;;;;;;9.02;2.33;;;28.10;51.70;;;;;;6224792;23;20526;-78
2021/06/20 09:33:06;;;;;;;6.68;2.35;;;28.30;51.60;;;;;;6225118;23;20048;-79
2021/06/20 09:35:43;;;;;;;4.55;2.28;;;28.10;51.40;;;;;;6226803;23;20300;-79
2021/06/20 09:38:17;;;;;;;4.68;2.15;;;27.90;51.30;;;;;;6227081;23;20208;-78
2021/06/20 09:40:45;;;;;;;6.43;2.63;;;27.80;51.00;;;;;;6225315;23;20115;-79
2021/06/20 09:43:14;;;;;;;7.32;2.75;;;28.30;50.40;;;;;;6225711;23;20059;-79
2021/06/20 09:45:45;;;;;;;5.45;2.10;;;28.20;50.60;;;;;;6225101;23;20051;-78
2021/06/20 09:48:25;;;;;;;3.95;1.85;;;28.10;50.80;;;;;;6222684;23;20079;-79
2021/06/20 09:50:53;;;;;;;5.90;1.88;;;28.20;50.40;;;;;;6223327;23;20234;-79
2021/06/20 09:53:31;;;;;;;4.45;2.13;;;28.30;49.20;;;;;;6220851;23;20071;-79
2021/06/20 09:56:13;;;;;;;4.35;2.10;;;28.20;49.20;;;;;;6223559;23;20116;-78
2021/06/20 09:58:44;;;;;;;4.68;1.90;;;27.70;50.10;;;;;;6223396;23;20043;-79
2021/06/20 10:01:12;;;;;;;6.45;1.90;;;27.90;49.20;;;;;;6219153;23;20040;-80
2021/06/20 10:03:42;;;;;;;5.07;2.03;;;28.20;49.40;;;;;;6223850;23;20051;-80
2021/06/20 10:06:12;;;;;;;6.90;2.10;;;28.20;49.50;;;;;;6221189;23;20028;-78
2021/06/20 10:08:40;;;;;;;5.53;2.20;;;28.20;50.00;;;;;;6225176;23;20062;-79
2021/06/20 10:11:08;;;;;;;4.28;2.03;;;28.10;49.90;;;;;;6224671;23;20017;-78
2021/06/20 10:13:36;;;;;;;3.92;2.05;;;28.10;50.20;;;;;;6221812;23;20036;-79
2021/06/20 10:16:16;;;;;;;3.97;2.30;;;28.10;49.70;;;;;;6224012;23;20059;-80
2021/06/20 10:18:52;;;;;;;4.80;2.17;;;28.20;49.30;;;;;;6225550;23;20024;-79
2021/06/20 10:21:40;;;;;;;7.57;1.85;;;28.60;48.60;;;;;;6224901;23;20231;-79
2021/06/20 10:24:12;;;;;;;5.93;1.98;;;28.80;47.90;;;;;;6221337;23;20021;-79
2021/06/20 10:26:44;;;;;;;5.75;1.75;;;28.70;48.40;;;;;;6247780;23;20371;-80
2021/06/20 10:29:20;;;;;;;4.07;1.77;;;28.50;49.00;;;;;;6223307;23;20013;-78
2021/06/20 10:31:49;;;;;;;4.90;1.85;;;28.40;49.50;;;;;;6222345;23;20040;-78
2021/06/20 10:34:21;;;;;;;3.40;2.05;;;28.50;49.40;;;;;;6222911;23;20028;-78
2021/06/20 10:36:55;;;;;;;6.18;2.60;;;28.10;49.70;;;;;;6223692;23;20208;-78
2021/06/20 10:39:23;;;;;;;4.63;1.90;;;27.90;51.00;;;;;;6248835;23;20017;-77
2021/06/20 10:42:02;;;;;;;3.90;2.17;;;27.70;51.00;;;;;;6249171;23;20308;-77
2021/06/20 10:44:42;;;;;;;5.80;2.00;;;27.40;51.50;;;;;;6223703;23;20028;-78
2021/06/20 10:47:09;;;;;;;6.57;2.20;;;27.50;52.10;;;;;;6248983;23;20083;-77
2021/06/20 10:49:40;;;;;;;4.57;2.33;;;27.40;51.90;;;;;;6224458;23;20253;-78
2021/06/20 10:52:17;;;;;;;9.13;2.40;;;27.50;52.20;;;;;;6222512;23;20028;-79
2021/06/20 10:54:51;;;;;;;4.95;2.42;;;27.30;52.00;;;;;;6242763;23;20322;-79
2021/06/20 10:57:30;;;;;;;9.35;2.47;;;27.20;53.50;;;;;;6221646;23;20071;-79
2021/06/20 10:59:58;;;;;;;4.05;2.03;;;27.40;52.40;;;;;;6222443;23;20031;-78
2021/06/20 11:02:33;;;;;;;3.88;1.80;;;27.30;53.50;;;;;;6216830;23;20012;-78
2021/06/20 11:05:02;;;;;;;3.97;1.77;;;27.20;54.70;;;;;;6227262;23;20064;-80
2021/06/20 11:07:31;;;;;;;6.18;2.10;;;26.90;55.40;;;;;;6226022;23;20016;-78
2021/06/20 11:09:59;;;;;;;4.22;1.88;;;26.80;54.60;;;;;;6223801;23;20051;-79
2021/06/20 11:12:27;;;;;;;4.10;2.25;;;26.70;55.40;;;;;;6221904;23;20028;-78
2021/06/20 11:14:56;;;;;;;5.35;1.80;;;26.60;55.20;;;;;;6224641;23;20036;-78
2021/06/20 11:17:35;;;;;;;6.60;1.73;;;26.50;54.70;;;;;;6225665;23;20029;-79
2021/06/20 11:20:14;;;;;;;6.90;2.40;;;26.40;55.80;;;;;;6228557;23;20024;-79
2021/06/20 11:22:42;;;;;;;6.45;1.90;;;26.40;55.60;;;;;;6225675;23;20366;-78
2021/06/20 11:25:10;;;;;;;8.70;2.85;;;26.20;56.10;;;;;;6197230;23;20024;-78
2021/06/20 11:27:38;;;;;;;4.55;1.95;;;26.10;56.70;;;;;;6225478;23;20107;-78
2021/06/20 11:30:09;;;;;;;4.38;2.30;;;26.00;58.50;;;;;;6223122;23;20051;-78
2021/06/20 11:32:36;;;;;;;7.20;2.28;;;25.80;59.70;;;;;;6225044;23;20016;-79
2021/06/20 11:35:06;;;;;;;4.85;2.00;;;26.00;60.60;;;;;;6222405;23;20029;-79
2021/06/20 11:37:43;;;;;;;5.68;2.33;;;25.90;60.40;;;;;;6226474;23;20016;-79
2021/06/20 11:40:15;;;;;;;7.75;2.40;;;25.90;60.10;;;;;;6223246;23;20343;-78
2021/06/20 11:42:47;;;;;;;4.40;2.15;;;25.80;59.70;;;;;;6223231;23;20020;-78
2021/06/20 11:45:19;;;;;;;4.38;2.30;;;25.80;60.40;;;;;;6222959;23;20027;-77
2021/06/20 11:47:50;;;;;;;4.40;1.85;;;25.80;59.90;;;;;;6221142;23;20079;-78
2021/06/20 11:50:19;;;;;;;4.40;1.90;;;25.90;61.00;;;;;;6223050;23;20028;-78
2021/06/20 11:52:50;;;;;;;;;;;26.10;61.50;;;;;;6221559;23;20453;-78
2021/06/20 11:55:20;;;;;;;5.38;2.17;;;26.10;63.40;;;;;;6223149;23;20230;-78
2021/06/20 11:57:49;;;;;;;4.20;1.80;;;26.10;63.20;;;;;;6224031;23;20044;-78
2021/06/20 12:00:18;;;;;;;7.50;2.22;;;26.20;61.90;;;;;;6217332;23;20020;-78
2021/06/20 12:02:47;;;;;;;3.80;2.00;;;26.40;61.90;;;;;;6223005;23;20389;-78
2021/06/20 12:05:16;;;;;;;3.97;2.00;;;26.60;60.50;;;;;;6223472;23;20024;-77
2021/06/20 12:07:44;;;;;;;4.18;1.77;;;27.10;60.90;;;;;;6213509;23;20030;-78
2021/06/20 12:10:18;;;;;;;5.40;2.00;;;28.00;56.30;;;;;;6225079;23;20039;-78
2021/06/20 12:12:58;;;;;;;3.33;1.67;;;29.80;52.60;;;;;;6225582;23;20046;-77
2021/06/20 12:15:26;;;;;;;6.53;2.63;;;31.40;47.30;;;;;;6233184;23;20012;-77
2021/06/20 12:17:55;;;;;;;6.60;2.70;;;30.70;50.20;;;;;;6230978;23;20334;-78
2021/06/20 12:20:29;;;;;;;7.20;3.47;;;30.10;52.80;;;;;;6222377;23;20319;-77
2021/06/20 12:22:56;;;;;;;5.80;2.25;;;29.60;54.10;;;;;;6223080;23;20415;-78
2021/06/20 12:25:26;;;;;;;5.13;2.10;;;29.40;53.40;;;;;;6223657;23;20028;-78
2021/06/20 12:27:53;;;;;;;6.93;2.72;;;29.10;49.70;;;;;;6225363;23;20032;-77
2021/06/20 12:30:23;;;;;;;6.97;1.92;;;28.90;51.50;;;;;;6222723;23;20107;-77
2021/06/20 12:32:52;;;;;;;4.28;1.95;;;28.70;51.20;;;;;;6226378;23;20263;-79
2021/06/20 12:35:21;;;;;;;5.88;1.90;;;28.60;52.10;;;;;;6224871;23;20017;-78
2021/06/20 12:37:50;;;;;;;5.60;2.70;;;28.40;52.70;;;;;;6226788;23;20024;-78
2021/06/20 12:40:20;;;;;;;6.68;1.77;;;28.60;52.30;;;;;;6226397;23;20021;-79
2021/06/20 12:42:50;;;;;;;4.82;1.65;;;28.40;52.50;;;;;;6225999;23;20071;-79
2021/06/20 12:45:24;;;;;;;7.97;1.83;;;28.40;51.60;;;;;;6224460;23;20098;-78
2021/06/20 12:47:54;;;;;;;3.33;1.80;;;28.50;51.30;;;;;;6226781;23;20051;-77
2021/06/20 12:50:32;;;;;;;6.45;1.67;;;28.50;50.40;;;;;;6223881;23;20044;-78
2021/06/20 12:53:01;;;;;;;7.53;1.77;;;28.30;50.60;;;;;;6226982;23;20024;-79
2021/06/20 12:55:33;;;;;;;5.20;1.88;;;28.30;51.10;;;;;;6224860;23;20039;-80